sensor_id;sensor_type;location;lat;lon;timestamp;pressure;altitude;pressure_sealevel;temperature;humidity
60019;BME280;45870;42.528;26.740;2023-04-06T00:00:58;99360.78;;;16.25;45.99
60019;BME280;45870;42.528;26.740;2023-04-06T00:03:26;99352.50;;;16.45;45.45
60019;BME280;45870;42.528;26.740;2023-04-06T00:05:52;99356.88;;;16.36;44.98
60019;BME280;45870;42.528;26.740;2023-04-06T00:08:18;99340.72;;;15.96;46.02
60019;BME280;45870;42.528;26.740;2023-04-06T00:10:44;99354.56;;;16.15;45.33
60019;BME280;45870;42.528;26.740;2023-04-06T00:13:10;99352.72;;;16.59;44.43
60019;BME280;45870;42.528;26.740;2023-04-06T00:15:35;99353.50;;;16.65;44.83
60019;BME280;45870;42.528;26.740;2023-04-06T00:18:02;99351.91;;;16.54;44.73
60019;BME280;45870;42.528;26.740;2023-04-06T00:20:28;99347.00;;;16.56;45.00
60019;BME280;45870;42.528;26.740;2023-04-06T00:22:53;99349.16;;;16.59;44.62
60019;BME280;45870;42.528;26.740;2023-04-06T00:25:19;99320.41;;;15.38;46.92
60019;BME280;45870;42.528;26.740;2023-04-06T00:27:45;99348.72;;;15.57;46.83
60019;BME280;45870;42.528;26.740;2023-04-06T00:30:11;99346.03;;;16.31;45.24
60019;BME280;45870;42.528;26.740;2023-04-06T00:32:37;99327.78;;;16.32;44.88
60019;BME280;45870;42.528;26.740;2023-04-06T00:35:03;99338.88;;;16.45;44.87
60019;BME280;45870;42.528;26.740;2023-04-06T00:37:29;99335.56;;;16.54;44.78
60019;BME280;45870;42.528;26.740;2023-04-06T00:39:55;99337.19;;;16.60;44.85
60019;BME280;45870;42.528;26.740;2023-04-06T00:42:21;99336.50;;;15.14;47.74
60019;BME280;45870;42.528;26.740;2023-04-06T00:44:56;99303.28;;;15.58;47.24
60019;BME280;45870;42.528;26.740;2023-04-06T00:47:23;99331.84;;;15.10;48.38
60019;BME280;45870;42.528;26.740;2023-04-06T00:49:54;99279.00;;;15.76;46.56
60019;BME280;45870;42.528;26.740;2023-04-06T00:52:20;99322.63;;;15.16;48.25
60019;BME280;45870;42.528;26.740;2023-04-06T00:54:46;99261.47;;;14.42;49.08
60019;BME280;45870;42.528;26.740;2023-04-06T00:57:12;99327.13;;;13.30;54.15
60019;BME280;45870;42.528;26.740;2023-04-06T00:59:39;99318.53;;;13.07;54.97
60019;BME280;45870;42.528;26.740;2023-04-06T01:02:06;99271.88;;;13.93;51.91
60019;BME280;45870;42.528;26.740;2023-04-06T01:04:32;99267.06;;;12.70;55.36
60019;BME280;45870;42.528;26.740;2023-04-06T01:06:58;99325.53;;;13.02;55.12
60019;BME280;45870;42.528;26.740;2023-04-06T01:09:24;99319.00;;;13.25;55.39
60019;BME280;45870;42.528;26.740;2023-04-06T01:11:50;99314.09;;;12.95;55.52
60019;BME280;45870;42.528;26.740;2023-04-06T01:14:15;99293.53;;;13.26;55.17
60019;BME280;45870;42.528;26.740;2023-04-06T01:16:42;99295.34;;;13.58;53.60
60019;BME280;45870;42.528;26.740;2023-04-06T01:19:09;99268.09;;;13.00;54.71
60019;BME280;45870;42.528;26.740;2023-04-06T01:21:36;99302.44;;;12.90;55.45
60019;BME280;45870;42.528;26.740;2023-04-06T01:24:02;99301.31;;;14.27;52.77
60019;BME280;45870;42.528;26.740;2023-04-06T01:26:28;99293.88;;;13.97;52.29
60019;BME280;45870;42.528;26.740;2023-04-06T01:28:55;99297.81;;;13.69;53.83
60019;BME280;45870;42.528;26.740;2023-04-06T01:31:21;99292.09;;;13.66;53.56
60019;BME280;45870;42.528;26.740;2023-04-06T01:33:47;99286.00;;;13.95;53.16
60019;BME280;45870;42.528;26.740;2023-04-06T01:36:13;99286.44;;;15.20;49.18
60019;BME280;45870;42.528;26.740;2023-04-06T01:38:40;99279.97;;;16.11;46.78
60019;BME280;45870;42.528;26.740;2023-04-06T01:41:07;99221.81;;;14.97;47.80
60019;BME280;45870;42.528;26.740;2023-04-06T01:43:33;99285.38;;;15.52;48.31
60019;BME280;45870;42.528;26.740;2023-04-06T01:45:59;99283.16;;;15.48;48.18
60019;BME280;45870;42.528;26.740;2023-04-06T01:48:26;99287.00;;;15.17;49.04
60019;BME280;45870;42.528;26.740;2023-04-06T01:50:52;99278.78;;;15.68;47.85
60019;BME280;45870;42.528;26.740;2023-04-06T01:53:18;99286.44;;;16.20;46.60
60019;BME280;45870;42.528;26.740;2023-04-06T01:55:44;99281.97;;;15.85;47.23
60019;BME280;45870;42.528;26.740;2023-04-06T01:58:10;99284.03;;;15.09;49.05
60019;BME280;45870;42.528;26.740;2023-04-06T02:00:36;99278.28;;;14.49;51.03
60019;BME280;45870;42.528;26.740;2023-04-06T02:03:02;99254.34;;;13.49;52.56
60019;BME280;45870;42.528;26.740;2023-04-06T02:05:29;99285.84;;;15.64;47.88
60019;BME280;45870;42.528;26.740;2023-04-06T02:07:55;99283.38;;;16.31;45.85
60019;BME280;45870;42.528;26.740;2023-04-06T02:10:22;99264.59;;;16.30;45.69
60019;BME280;45870;42.528;26.740;2023-04-06T02:12:48;99220.66;;;16.03;46.37
60019;BME280;45870;42.528;26.740;2023-04-06T02:15:14;99279.84;;;15.67;47.34
60019;BME280;45870;42.528;26.740;2023-04-06T02:17:41;99274.03;;;15.98;46.92
60019;BME280;45870;42.528;26.740;2023-04-06T02:20:07;99218.03;;;16.26;45.04
60019;BME280;45870;42.528;26.740;2023-04-06T02:22:35;99277.75;;;16.67;44.58
60019;BME280;45870;42.528;26.740;2023-04-06T02:25:00;99268.69;;;16.27;45.61
60019;BME280;45870;42.528;26.740;2023-04-06T02:27:27;99272.63;;;16.01;46.21
60019;BME280;45870;42.528;26.740;2023-04-06T02:29:52;99274.22;;;16.12;46.77
60019;BME280;45870;42.528;26.740;2023-04-06T02:32:18;99272.34;;;16.52;45.50
60019;BME280;45870;42.528;26.740;2023-04-06T02:34:44;99273.69;;;16.59;45.39
60019;BME280;45870;42.528;26.740;2023-04-06T02:37:10;99275.28;;;15.47;47.85
60019;BME280;45870;42.528;26.740;2023-04-06T02:39:35;99278.88;;;16.50;45.40
60019;BME280;45870;42.528;26.740;2023-04-06T02:42:01;99282.00;;;16.34;45.60
60019;BME280;45870;42.528;26.740;2023-04-06T02:44:27;99285.34;;;16.21;45.99
60019;BME280;45870;42.528;26.740;2023-04-06T02:46:52;99289.00;;;16.50;45.63
60019;BME280;45870;42.528;26.740;2023-04-06T02:49:18;99284.75;;;16.78;44.21
60019;BME280;45870;42.528;26.740;2023-04-06T02:51:44;99288.75;;;16.46;45.41
60019;BME280;45870;42.528;26.740;2023-04-06T02:54:10;99292.13;;;16.72;44.66
60019;BME280;45870;42.528;26.740;2023-04-06T02:56:35;99292.25;;;16.47;45.32
60019;BME280;45870;42.528;26.740;2023-04-06T02:59:01;99292.56;;;16.45;45.25
60019;BME280;45870;42.528;26.740;2023-04-06T03:01:27;99290.47;;;15.63;46.25
60019;BME280;45870;42.528;26.740;2023-04-06T03:03:52;99264.38;;;15.52;46.21
60019;BME280;45870;42.528;26.740;2023-04-06T03:06:18;99300.06;;;15.15;46.51
60019;BME280;45870;42.528;26.740;2023-04-06T03:08:44;99282.88;;;15.60;45.54
60019;BME280;45870;42.528;26.740;2023-04-06T03:11:09;99283.13;;;15.64;45.26
60019;BME280;45870;42.528;26.740;2023-04-06T03:13:37;99296.63;;;15.94;44.88
60019;BME280;45870;42.528;26.740;2023-04-06T03:16:04;99302.19;;;15.43;45.76
60019;BME280;45870;42.528;26.740;2023-04-06T03:18:31;99115.34;;;14.49;45.51
60019;BME280;45870;42.528;26.740;2023-04-06T03:20:56;99240.50;;;15.24;45.48
60019;BME280;45870;42.528;26.740;2023-04-06T03:23:22;99267.41;;;15.20;45.66
60019;BME280;45870;42.528;26.740;2023-04-06T03:25:48;99251.31;;;14.08;47.62
60019;BME280;45870;42.528;26.740;2023-04-06T03:28:14;99300.38;;;13.86;50.95
60019;BME280;45870;42.528;26.740;2023-04-06T03:30:41;99302.56;;;12.20;53.67
60019;BME280;45870;42.528;26.740;2023-04-06T03:33:07;99294.63;;;12.67;53.86
60019;BME280;45870;42.528;26.740;2023-04-06T03:35:33;99287.19;;;14.25;49.77
60019;BME280;45870;42.528;26.740;2023-04-06T03:37:58;99289.75;;;14.77;48.33
60019;BME280;45870;42.528;26.740;2023-04-06T03:40:24;99302.78;;;15.05;47.66
60019;BME280;45870;42.528;26.740;2023-04-06T03:42:50;99303.69;;;14.08;49.74
60019;BME280;45870;42.528;26.740;2023-04-06T03:45:16;99306.91;;;13.48;50.72
60019;BME280;45870;42.528;26.740;2023-04-06T03:47:42;99306.25;;;11.70;53.96
60019;BME280;45870;42.528;26.740;2023-04-06T03:50:08;99318.22;;;12.98;51.11
60019;BME280;45870;42.528;26.740;2023-04-06T03:52:35;99295.81;;;11.57;54.03
60019;BME280;45870;42.528;26.740;2023-04-06T03:55:01;99311.06;;;12.55;50.21
60019;BME280;45870;42.528;26.740;2023-04-06T03:57:27;99314.63;;;13.66;47.74
60019;BME280;45870;42.528;26.740;2023-04-06T03:59:52;99320.38;;;12.42;49.90
60019;BME280;45870;42.528;26.740;2023-04-06T04:02:18;99317.69;;;12.69;50.10
60019;BME280;45870;42.528;26.740;2023-04-06T04:04:43;99312.84;;;11.02;52.88
60019;BME280;45870;42.528;26.740;2023-04-06T04:07:09;99303.03;;;12.38;49.56
60019;BME280;45870;42.528;26.740;2023-04-06T04:09:36;99304.97;;;11.94;50.67
60019;BME280;45870;42.528;26.740;2023-04-06T04:12:02;99309.38;;;11.62;51.17
60019;BME280;45870;42.528;26.740;2023-04-06T04:14:28;99308.16;;;10.81;54.20
60019;BME280;45870;42.528;26.740;2023-04-06T04:16:53;99311.00;;;11.80;51.70
60019;BME280;45870;42.528;26.740;2023-04-06T04:19:19;99308.84;;;12.25;49.69
60019;BME280;45870;42.528;26.740;2023-04-06T04:21:46;99311.44;;;11.72;51.39
60019;BME280;45870;42.528;26.740;2023-04-06T04:24:12;99298.25;;;11.59;49.79
60019;BME280;45870;42.528;26.740;2023-04-06T04:26:38;99310.16;;;10.86;51.46
60019;BME280;45870;42.528;26.740;2023-04-06T04:29:05;99319.44;;;10.62;52.94
60019;BME280;45870;42.528;26.740;2023-04-06T04:31:31;99313.28;;;10.49;52.88
60019;BME280;45870;42.528;26.740;2023-04-06T04:33:57;99277.78;;;10.13;53.06
60019;BME280;45870;42.528;26.740;2023-04-06T04:36:23;99328.59;;;9.92;54.81
60019;BME280;45870;42.528;26.740;2023-04-06T04:38:51;99336.19;;;9.21;56.75
60019;BME280;45870;42.528;26.740;2023-04-06T04:41:17;99333.97;;;9.29;55.56
60019;BME280;45870;42.528;26.740;2023-04-06T04:43:43;99331.75;;;11.58;49.65
60019;BME280;45870;42.528;26.740;2023-04-06T04:46:10;99324.03;;;10.33;51.79
60019;BME280;45870;42.528;26.740;2023-04-06T04:48:38;99335.34;;;12.23;47.20
60019;BME280;45870;42.528;26.740;2023-04-06T04:51:04;99324.53;;;13.40;44.37
60019;BME280;45870;42.528;26.740;2023-04-06T04:53:30;99311.84;;;12.29;45.69
60019;BME280;45870;42.528;26.740;2023-04-06T04:55:56;99325.41;;;13.56;43.90
60019;BME280;45870;42.528;26.740;2023-04-06T04:58:21;99333.19;;;12.25;46.57
60019;BME280;45870;42.528;26.740;2023-04-06T05:00:47;99334.38;;;13.62;43.98
60019;BME280;45870;42.528;26.740;2023-04-06T05:03:18;99271.59;;;13.85;42.69
60019;BME280;45870;42.528;26.740;2023-04-06T05:05:45;99328.16;;;13.61;43.76
60019;BME280;45870;42.528;26.740;2023-04-06T05:08:11;99273.91;;;11.75;47.13
60019;BME280;45870;42.528;26.740;2023-04-06T05:10:37;99322.44;;;14.10;43.04
60019;BME280;45870;42.528;26.740;2023-04-06T05:13:03;99318.81;;;14.86;41.24
60019;BME280;45870;42.528;26.740;2023-04-06T05:15:29;99331.03;;;14.69;41.22
60019;BME280;45870;42.528;26.740;2023-04-06T05:17:55;99322.38;;;15.12;41.29
60019;BME280;45870;42.528;26.740;2023-04-06T05:20:21;99321.81;;;15.05;40.09
60019;BME280;45870;42.528;26.740;2023-04-06T05:22:46;99317.50;;;14.01;43.58
60019;BME280;45870;42.528;26.740;2023-04-06T05:25:13;99311.91;;;15.80;39.51
60019;BME280;45870;42.528;26.740;2023-04-06T05:27:39;99314.66;;;13.76;44.89
60019;BME280;45870;42.528;26.740;2023-04-06T05:30:06;99300.56;;;15.47;40.82
60019;BME280;45870;42.528;26.740;2023-04-06T05:32:31;99318.66;;;16.52;38.49
60019;BME280;45870;42.528;26.740;2023-04-06T05:34:57;99320.34;;;14.32;41.95
60019;BME280;45870;42.528;26.740;2023-04-06T05:37:23;99313.09;;;12.70;45.87
60019;BME280;45870;42.528;26.740;2023-04-06T05:39:49;99314.63;;;14.33;42.85
60019;BME280;45870;42.528;26.740;2023-04-06T05:42:15;99318.00;;;14.86;41.96
60019;BME280;45870;42.528;26.740;2023-04-06T05:44:41;99305.69;;;11.68;50.72
60019;BME280;45870;42.528;26.740;2023-04-06T05:47:06;99315.00;;;15.33;40.60
60019;BME280;45870;42.528;26.740;2023-04-06T05:49:32;99314.47;;;13.04;44.78
60019;BME280;45870;42.528;26.740;2023-04-06T05:51:58;99311.41;;;13.74;43.07
60019;BME280;45870;42.528;26.740;2023-04-06T05:54:23;99310.09;;;14.49;42.92
60019;BME280;45870;42.528;26.740;2023-04-06T05:56:49;99310.09;;;14.59;42.17
60019;BME280;45870;42.528;26.740;2023-04-06T05:59:15;99308.16;;;15.76;39.86
60019;BME280;45870;42.528;26.740;2023-04-06T06:01:41;99301.69;;;14.66;41.34
60019;BME280;45870;42.528;26.740;2023-04-06T06:04:07;99299.22;;;11.31;49.71
60019;BME280;45870;42.528;26.740;2023-04-06T06:06:32;99288.94;;;14.91;42.12
60019;BME280;45870;42.528;26.740;2023-04-06T06:08:58;99302.50;;;15.22;40.70
60019;BME280;45870;42.528;26.740;2023-04-06T06:11:29;99299.56;;;16.62;38.72
60019;BME280;45870;42.528;26.740;2023-04-06T06:13:55;99293.97;;;18.34;34.71
60019;BME280;45870;42.528;26.740;2023-04-06T06:16:21;99306.19;;;17.18;37.10
60019;BME280;45870;42.528;26.740;2023-04-06T06:18:47;99259.09;;;17.13;36.86
60019;BME280;45870;42.528;26.740;2023-04-06T06:21:13;99290.06;;;13.36;44.41
60019;BME280;45870;42.528;26.740;2023-04-06T06:23:39;99311.59;;;16.50;39.55
60019;BME280;45870;42.528;26.740;2023-04-06T06:26:05;99243.81;;;16.83;38.00
60019;BME280;45870;42.528;26.740;2023-04-06T06:28:30;99303.00;;;13.71;45.71
60019;BME280;45870;42.528;26.740;2023-04-06T06:30:57;99298.94;;;17.09;38.88
60019;BME280;45870;42.528;26.740;2023-04-06T06:33:24;99285.66;;;15.15;41.26
60019;BME280;45870;42.528;26.740;2023-04-06T06:35:50;99309.47;;;16.86;38.12
60019;BME280;45870;42.528;26.740;2023-04-06T06:38:16;99311.66;;;17.18;39.57
60019;BME280;45870;42.528;26.740;2023-04-06T06:40:42;99279.25;;;20.47;33.28
60019;BME280;45870;42.528;26.740;2023-04-06T06:43:08;99310.41;;;21.31;30.18
60019;BME280;45870;42.528;26.740;2023-04-06T06:45:34;99314.59;;;20.34;33.44
60019;BME280;45870;42.528;26.740;2023-04-06T06:48:00;99307.53;;;23.14;28.12
60019;BME280;45870;42.528;26.740;2023-04-06T06:50:27;99313.47;;;22.56;27.85
60019;BME280;45870;42.528;26.740;2023-04-06T06:52:52;99313.94;;;24.78;27.06
60019;BME280;45870;42.528;26.740;2023-04-06T06:55:18;99297.34;;;17.84;34.99
60019;BME280;45870;42.528;26.740;2023-04-06T06:57:44;99314.81;;;20.74;30.57
60019;BME280;45870;42.528;26.740;2023-04-06T07:00:12;99311.00;;;22.29;29.96
60019;BME280;45870;42.528;26.740;2023-04-06T07:02:39;99316.47;;;24.92;26.48
60019;BME280;45870;42.528;26.740;2023-04-06T07:05:05;99314.09;;;22.36;28.00
60019;BME280;45870;42.528;26.740;2023-04-06T07:07:32;99311.88;;;21.68;31.25
60019;BME280;45870;42.528;26.740;2023-04-06T07:09:59;99307.97;;;23.33;27.88
60019;BME280;45870;42.528;26.740;2023-04-06T07:12:25;99309.28;;;20.52;32.46
60019;BME280;45870;42.528;26.740;2023-04-06T07:14:50;99307.69;;;19.55;34.06
60019;BME280;45870;42.528;26.740;2023-04-06T07:17:16;99316.88;;;23.39;28.76
60019;BME280;45870;42.528;26.740;2023-04-06T07:19:43;99323.03;;;23.27;27.98
60019;BME280;45870;42.528;26.740;2023-04-06T07:22:10;99317.34;;;19.93;31.77
60019;BME280;45870;42.528;26.740;2023-04-06T07:24:35;99323.41;;;18.99;34.38
60019;BME280;45870;42.528;26.740;2023-04-06T07:27:01;99314.16;;;21.97;28.98
60019;BME280;45870;42.528;26.740;2023-04-06T07:29:27;99318.00;;;20.54;31.29
60019;BME280;45870;42.528;26.740;2023-04-06T07:31:53;99322.63;;;18.18;35.22
60019;BME280;45870;42.528;26.740;2023-04-06T07:34:20;99311.44;;;19.46;34.94
60019;BME280;45870;42.528;26.740;2023-04-06T07:36:46;99316.88;;;22.53;28.65
60019;BME280;45870;42.528;26.740;2023-04-06T07:39:11;99313.72;;;19.38;30.94
60019;BME280;45870;42.528;26.740;2023-04-06T07:41:37;99324.94;;;20.37;32.36
60019;BME280;45870;42.528;26.740;2023-04-06T07:44:03;99290.41;;;16.42;37.79
60019;BME280;45870;42.528;26.740;2023-04-06T07:46:30;99327.03;;;16.70;34.55
60019;BME280;45870;42.528;26.740;2023-04-06T07:48:56;99319.38;;;14.93;40.40
60019;BME280;45870;42.528;26.740;2023-04-06T07:51:23;99315.59;;;17.88;31.82
60019;BME280;45870;42.528;26.740;2023-04-06T07:53:50;99302.56;;;20.58;28.41
60019;BME280;45870;42.528;26.740;2023-04-06T07:56:16;99302.00;;;23.86;25.51
60019;BME280;45870;42.528;26.740;2023-04-06T07:58:42;99305.25;;;24.68;24.59
60019;BME280;45870;42.528;26.740;2023-04-06T08:01:08;99307.78;;;20.18;28.01
60019;BME280;45870;42.528;26.740;2023-04-06T08:03:34;99292.75;;;19.48;30.38
60019;BME280;45870;42.528;26.740;2023-04-06T08:06:00;99303.19;;;21.35;26.11
60019;BME280;45870;42.528;26.740;2023-04-06T08:08:27;99309.06;;;21.51;28.21
60019;BME280;45870;42.528;26.740;2023-04-06T08:10:53;99308.03;;;22.99;24.74
60019;BME280;45870;42.528;26.740;2023-04-06T08:13:18;99303.72;;;19.48;29.45
60019;BME280;45870;42.528;26.740;2023-04-06T08:15:44;99263.63;;;22.23;25.23
60019;BME280;45870;42.528;26.740;2023-04-06T08:18:10;99304.91;;;22.66;28.09
60019;BME280;45870;42.528;26.740;2023-04-06T08:20:36;99294.88;;;21.88;24.94
60019;BME280;45870;42.528;26.740;2023-04-06T08:23:02;99306.28;;;23.67;25.44
60019;BME280;45870;42.528;26.740;2023-04-06T08:25:27;99293.22;;;20.59;27.80
60019;BME280;45870;42.528;26.740;2023-04-06T08:27:53;99271.75;;;18.22;33.27
60019;BME280;45870;42.528;26.740;2023-04-06T08:30:19;99284.75;;;18.30;32.22
60019;BME280;45870;42.528;26.740;2023-04-06T08:32:45;99280.91;;;22.24;26.57
60019;BME280;45870;42.528;26.740;2023-04-06T08:35:11;99284.44;;;24.70;23.48
60019;BME280;45870;42.528;26.740;2023-04-06T08:37:37;99290.63;;;21.42;27.80
60019;BME280;45870;42.528;26.740;2023-04-06T08:40:03;99281.56;;;21.81;26.87
60019;BME280;45870;42.528;26.740;2023-04-06T08:42:32;99276.75;;;22.52;27.69
60019;BME280;45870;42.528;26.740;2023-04-06T08:44:59;99226.38;;;22.00;26.14
60019;BME280;45870;42.528;26.740;2023-04-06T08:47:25;99278.81;;;22.12;27.00
60019;BME280;45870;42.528;26.740;2023-04-06T08:49:52;99281.97;;;17.93;32.22
60019;BME280;45870;42.528;26.740;2023-04-06T08:52:19;99275.59;;;17.79;33.16
60019;BME280;45870;42.528;26.740;2023-04-06T08:54:45;99270.03;;;18.26;31.77
60019;BME280;45870;42.528;26.740;2023-04-06T08:57:11;99216.47;;;15.66;34.93
60019;BME280;45870;42.528;26.740;2023-04-06T08:59:38;99267.44;;;14.49;37.64
60019;BME280;45870;42.528;26.740;2023-04-06T09:02:05;99262.88;;;16.00;34.49
60019;BME280;45870;42.528;26.740;2023-04-06T09:04:35;99260.63;;;17.95;32.12
60019;BME280;45870;42.528;26.740;2023-04-06T09:07:02;99224.78;;;18.20;31.76
60019;BME280;45870;42.528;26.740;2023-04-06T09:09:27;99264.53;;;18.31;33.13
60019;BME280;45870;42.528;26.740;2023-04-06T09:11:53;99263.06;;;20.81;28.90
60019;BME280;45870;42.528;26.740;2023-04-06T09:14:41;99262.50;;;24.32;22.65
60019;BME280;45870;42.528;26.740;2023-04-06T09:17:07;99264.31;;;25.11;22.69
60019;BME280;45870;42.528;26.740;2023-04-06T09:19:33;99269.50;;;21.21;29.07
60019;BME280;45870;42.528;26.740;2023-04-06T09:22:04;99253.91;;;18.67;32.23
60019;BME280;45870;42.528;26.740;2023-04-06T09:24:42;99259.50;;;18.38;34.44
60019;BME280;45870;42.528;26.740;2023-04-06T09:27:08;99260.63;;;17.76;34.92
60019;BME280;45870;42.528;26.740;2023-04-06T09:29:34;99262.47;;;19.25;31.74
60019;BME280;45870;42.528;26.740;2023-04-06T09:32:03;99253.88;;;18.30;33.06
60019;BME280;45870;42.528;26.740;2023-04-06T09:34:30;99264.81;;;18.30;34.96
60019;BME280;45870;42.528;26.740;2023-04-06T09:36:56;99251.56;;;21.01;28.20
60019;BME280;45870;42.528;26.740;2023-04-06T09:39:22;99253.63;;;17.13;31.91
60019;BME280;45870;42.528;26.740;2023-04-06T09:41:52;99256.25;;;18.74;30.73
60019;BME280;45870;42.528;26.740;2023-04-06T09:44:18;99205.09;;;20.29;28.92
60019;BME280;45870;42.528;26.740;2023-04-06T09:46:46;99243.88;;;18.95;30.10
60019;BME280;45870;42.528;26.740;2023-04-06T09:49:13;99246.59;;;18.25;31.42
60019;BME280;45870;42.528;26.740;2023-04-06T09:51:45;99249.41;;;16.63;37.18
60019;BME280;45870;42.528;26.740;2023-04-06T09:54:17;99243.44;;;16.61;37.22
60019;BME280;45870;42.528;26.740;2023-04-06T09:56:51;99230.47;;;16.42;35.42
60019;BME280;45870;42.528;26.740;2023-04-06T10:05:04;99235.06;;;15.29;36.13
60019;BME280;45870;42.528;26.740;2023-04-06T10:07:32;99248.38;;;14.24;40.13
60019;BME280;45870;42.528;26.740;2023-04-06T10:09:59;99253.88;;;14.65;37.54
60019;BME280;45870;42.528;26.740;2023-04-06T10:12:26;99252.72;;;14.30;38.59
60019;BME280;45870;42.528;26.740;2023-04-06T10:14:51;99221.75;;;14.16;38.45
60019;BME280;45870;42.528;26.740;2023-04-06T10:17:17;99249.25;;;14.95;37.23
60019;BME280;45870;42.528;26.740;2023-04-06T10:19:59;99236.94;;;15.43;37.87
60019;BME280;45870;42.528;26.740;2023-04-06T10:22:38;99249.38;;;16.29;38.40
60019;BME280;45870;42.528;26.740;2023-04-06T10:25:06;99234.22;;;16.57;35.40
60019;BME280;45870;42.528;26.740;2023-04-06T10:27:33;99234.25;;;15.28;37.46
60019;BME280;45870;42.528;26.740;2023-04-06T10:30:06;99234.78;;;16.05;37.42
60019;BME280;45870;42.528;26.740;2023-04-06T10:32:38;99229.69;;;16.76;37.59
60019;BME280;45870;42.528;26.740;2023-04-06T10:35:11;99230.69;;;18.27;34.63
60019;BME280;45870;42.528;26.740;2023-04-06T10:38:02;99231.94;;;18.72;35.48
60019;BME280;45870;42.528;26.740;2023-04-06T10:40:29;99220.81;;;17.94;34.78
60019;BME280;45870;42.528;26.740;2023-04-06T10:43:08;99224.22;;;19.80;33.52
60019;BME280;45870;42.528;26.740;2023-04-06T10:45:34;99207.09;;;19.47;29.05
60019;BME280;45870;42.528;26.740;2023-04-06T10:48:13;99166.88;;;17.15;34.38
60019;BME280;45870;42.528;26.740;2023-04-06T10:50:41;99204.50;;;19.91;32.83
60019;BME280;45870;42.528;26.740;2023-04-06T10:53:08;99200.97;;;19.36;33.77
60019;BME280;45870;42.528;26.740;2023-04-06T10:55:38;99214.50;;;16.65;35.35
60019;BME280;45870;42.528;26.740;2023-04-06T10:58:08;99177.13;;;16.36;34.23
60019;BME280;45870;42.528;26.740;2023-04-06T11:00:35;99203.34;;;18.65;34.02
60019;BME280;45870;42.528;26.740;2023-04-06T11:03:00;99199.59;;;18.42;34.05
60019;BME280;45870;42.528;26.740;2023-04-06T11:05:27;99189.75;;;17.42;36.33
60019;BME280;45870;42.528;26.740;2023-04-06T11:07:53;99201.63;;;16.75;35.56
60019;BME280;45870;42.528;26.740;2023-04-06T11:10:22;99195.16;;;17.47;35.14
60019;BME280;45870;42.528;26.740;2023-04-06T11:12:53;99180.13;;;15.32;37.08
60019;BME280;45870;42.528;26.740;2023-04-06T11:15:20;99195.66;;;16.34;36.99
60019;BME280;45870;42.528;26.740;2023-04-06T11:17:45;99186.75;;;18.05;38.25
60019;BME280;45870;42.528;26.740;2023-04-06T11:20:11;99195.41;;;18.12;35.74
60019;BME280;45870;42.528;26.740;2023-04-06T11:22:51;99191.53;;;16.76;36.34
60019;BME280;45870;42.528;26.740;2023-04-06T11:25:17;99195.34;;;16.02;38.13
60019;BME280;45870;42.528;26.740;2023-04-06T11:27:43;99189.06;;;16.07;36.65
60019;BME280;45870;42.528;26.740;2023-04-06T11:30:09;99190.69;;;16.08;35.05
60019;BME280;45870;42.528;26.740;2023-04-06T11:32:43;99187.97;;;16.08;36.30
60019;BME280;45870;42.528;26.740;2023-04-06T11:35:23;99193.06;;;16.58;32.97
60019;BME280;45870;42.528;26.740;2023-04-06T11:37:50;99186.81;;;16.14;33.75
60019;BME280;45870;42.528;26.740;2023-04-06T11:40:20;99183.22;;;16.91;35.17
60019;BME280;45870;42.528;26.740;2023-04-06T11:42:52;99192.94;;;17.26;36.09
60019;BME280;45870;42.528;26.740;2023-04-06T11:45:18;99176.91;;;17.67;33.82
60019;BME280;45870;42.528;26.740;2023-04-06T11:47:43;99174.38;;;17.94;33.32
60019;BME280;45870;42.528;26.740;2023-04-06T11:50:12;99172.09;;;18.71;31.10
60019;BME280;45870;42.528;26.740;2023-04-06T11:52:39;99171.22;;;16.92;34.69
60019;BME280;45870;42.528;26.740;2023-04-06T11:55:16;99172.97;;;18.85;31.50
60019;BME280;45870;42.528;26.740;2023-04-06T11:57:42;99150.16;;;17.87;34.91
60019;BME280;45870;42.528;26.740;2023-04-06T12:00:09;99167.53;;;18.15;33.00
60019;BME280;45870;42.528;26.740;2023-04-06T12:02:38;99165.94;;;18.09;31.80
60019;BME280;45870;42.528;26.740;2023-04-06T12:05:05;99171.19;;;18.43;33.34
60019;BME280;45870;42.528;26.740;2023-04-06T12:07:32;99165.00;;;19.29;30.03
60019;BME280;45870;42.528;26.740;2023-04-06T12:10:00;99172.66;;;16.50;34.05
60019;BME280;45870;42.528;26.740;2023-04-06T12:12:26;99165.72;;;18.06;33.59
60019;BME280;45870;42.528;26.740;2023-04-06T12:14:52;99173.25;;;17.53;32.24
60019;BME280;45870;42.528;26.740;2023-04-06T12:17:19;99172.63;;;17.37;33.15
60019;BME280;45870;42.528;26.740;2023-04-06T12:19:45;99176.03;;;20.95;26.51
60019;BME280;45870;42.528;26.740;2023-04-06T12:22:11;99168.19;;;20.80;27.68
60019;BME280;45870;42.528;26.740;2023-04-06T12:24:37;99140.81;;;18.77;31.63
60019;BME280;45870;42.528;26.740;2023-04-06T12:27:03;99158.47;;;19.93;29.27
60019;BME280;45870;42.528;26.740;2023-04-06T12:29:28;99156.75;;;17.20;36.04
60019;BME280;45870;42.528;26.740;2023-04-06T12:31:54;99158.78;;;16.81;34.60
60019;BME280;45870;42.528;26.740;2023-04-06T12:34:20;99158.34;;;16.35;35.63
60019;BME280;45870;42.528;26.740;2023-04-06T12:36:46;99157.38;;;18.16;33.53
60019;BME280;45870;42.528;26.740;2023-04-06T12:39:11;99154.00;;;18.05;31.86
60019;BME280;45870;42.528;26.740;2023-04-06T12:41:37;99153.09;;;17.30;34.00
60019;BME280;45870;42.528;26.740;2023-04-06T12:44:05;99151.84;;;16.93;33.98
60019;BME280;45870;42.528;26.740;2023-04-06T12:46:31;99149.38;;;20.42;29.17
60019;BME280;45870;42.528;26.740;2023-04-06T12:48:58;99149.44;;;18.84;31.00
60019;BME280;45870;42.528;26.740;2023-04-06T12:51:27;99123.25;;;16.91;34.96
60019;BME280;45870;42.528;26.740;2023-04-06T12:53:53;99135.28;;;15.24;36.44